South Labrador Coast: Past 24 Hour Conditions

 

St. John's Int'l Airport

02:30 PM NDT 20 October 2014
This table is a summary of hourly weather conditions for the past 24 hours.
Date / Time
(NDT)
Wind(knots) Conditions Visibility(km) Pressure(kPa) Air tempC) Relative humidity(%) Dew pointC)
20 October 2014
14:30 SW 23 gust 35 Partly Cloudy 24 100.0 15 80 12
13:30 WSW 22 gust 33 Partly Cloudy 24 100.0 16 84 14
12:30 SSW 26 gust 37 Light Rainshower 24 99.9 17 93 16
11:30 S 22 gust 37 Mostly Cloudy 24 99.9 17 96 16
10:30 SSW 23 gust 32 Cloudy 19 100.1 17 98 16
9:30 S 22 gust 37 Light Drizzle 1 100.3 16 99 16
8:30 S 18 gust 23 Light Drizzle 0.4 100.4 15 99 15
7:30 S 20 gust 30 Light Rain 1 100.5 15 99 15
6:30 SSE 19 gust 24 Light Rain 6 100.6 14 99 14
5:30 S 18 gust 23 Light Rain 0.6 100.7 14 99 14
4:30 S 18 gust 24 Mostly Cloudy 13 100.8 15 98 14
3:30 SSE 16 gust 21 Fog 0.8 100.9 14 99 14
2:30 S 20 Light Rain 13 101.0 14 98 14
1:30 S 16 gust 21 Mostly Cloudy 24 101.1 13 98 13
0:30 S 14 Partly Cloudy 24 101.1 13 96 12
19 October 2014
23:30 SW 14 Partly Cloudy 24 101.1 12 94 11
22:30 SW 11 Mostly Cloudy 24 101.2 11 98 11
21:30 W 11 Mainly Clear 24 101.1 11 97 11
20:30 WSW 14 Mainly Clear 24 101.1 12 97 11
19:30 WSW 16 Mainly Clear 24 101.0 12 95 12
18:30 W 22 gust 28 Mainly Clear 24 100.8 13 93 12
17:30 W 18 gust 27 Partly Cloudy 24 100.7 14 88 13
16:30 SW 20 Mostly Cloudy 24 100.6 15 91 14
15:30 WSW 20 Mostly Cloudy 24 100.5 18 90 16
14:30 WSW 16 gust 22 Mostly Cloudy 24 N/A 19 87 17
 
Map of Atlantic - Newfoundland marine weather areas Southwestern Grand Banks - 44138 Banquereau - 44139 Tail of the Bank - 44140 Nickerson Bank - 44251 Northeast Burgeo Bank - 44255 Blanc-Sablon Airport Cap Whittle Chevery Natashquan Airport Heath Point Miscou Island Grand Étang Ingonish Beach North Mountain St.Paul Island J.A. Douglas McCurdy Sydney Airport Charlottetown Airport East Point North Cape Argentia Bonavista Burgeo Cape Race Corner Brook Daniel's Harbour Englee Ferolle Point La Scie Port aux Basques Rocky Harbour Sagona Island St. Anthony Airport St. John's Int'l Airport St. Lawrence Stephenville Airport Twillingate Winterland Wreckhouse Cartwright Airport Mary's Harbour Grates Cove Pool's Island Marticot Island Long Pond Îles de la Madeleine Airport
Legend: buoyBuoy land stationLand Station